createdAt,value
2022-09-28T00:02:12.345Z,4.30
2022-09-28T00:04:38.804Z,5.32
2022-09-28T00:07:05.186Z,5.72
2022-09-28T00:09:31.587Z,3.63
2022-09-28T00:11:58.022Z,2.72
2022-09-28T00:14:25.129Z,5.65
2022-09-28T00:16:51.569Z,4.05
2022-09-28T00:19:19.270Z,3.17
2022-09-28T00:21:45.995Z,3.50
2022-09-28T00:24:15.595Z,6.40
2022-09-28T00:26:54.155Z,2.92
2022-09-28T00:29:23.727Z,3.92
2022-09-28T00:32:02.411Z,6.30
2022-09-28T00:34:31.958Z,3.92
2022-09-28T00:36:59.329Z,4.72
2022-09-28T00:39:27.071Z,3.35
2022-09-28T00:41:54.451Z,6.68
2022-09-28T00:44:26.711Z,5.38
2022-09-28T00:47:14.788Z,3.95
2022-09-28T00:49:53.734Z,3.78
2022-09-28T00:52:35.017Z,4.22
2022-09-28T00:55:05.887Z,4.13
2022-09-28T00:57:32.702Z,10.02
2022-09-28T01:00:01.252Z,5.20
2022-09-28T01:02:27.895Z,3.08
2022-09-28T01:04:55.483Z,4.72
2022-09-28T01:07:22.551Z,8.50
2022-09-28T01:09:49.834Z,3.92
2022-09-28T01:12:16.250Z,7.78
2022-09-28T01:14:43.616Z,4.25
2022-09-28T01:17:42.204Z,4.53
2022-09-28T01:20:20.953Z,4.57
2022-09-28T01:23:28.522Z,3.70
2022-09-28T01:26:09.760Z,3.10
2022-09-28T01:28:36.395Z,3.33
2022-09-28T01:31:11.165Z,3.20
2022-09-28T01:33:42.203Z,4.53
2022-09-28T01:36:33.238Z,3.58
2022-09-28T01:39:09.059Z,3.30
2022-09-28T01:41:36.774Z,3.75
2022-09-28T01:44:06.157Z,4.13
2022-09-28T01:46:44.683Z,3.97
2022-09-28T01:49:16.140Z,3.23
2022-09-28T01:51:51.114Z,6.93
2022-09-28T01:54:28.108Z,4.07
2022-09-28T01:57:00.314Z,3.00
2022-09-28T01:59:31.011Z,5.43
2022-09-28T02:02:18.795Z,4.25
2022-09-28T02:04:50.174Z,4.43
2022-09-28T02:07:22.582Z,3.35
2022-09-28T02:09:57.810Z,4.35
2022-09-28T02:12:39.607Z,4.25
2022-09-28T02:15:14.781Z,7.38
2022-09-28T02:17:41.740Z,6.10
2022-09-28T02:20:08.980Z,4.15
2022-09-28T02:22:56.279Z,4.07
2022-09-28T02:25:31.064Z,4.20
2022-09-28T02:28:01.242Z,6.18
2022-09-28T02:33:05.893Z,4.57
2022-09-28T02:35:34.860Z,7.57
2022-09-28T02:38:02.579Z,5.88
2022-09-28T02:40:33.377Z,4.40
2022-09-28T02:43:32.643Z,6.85
2022-09-28T02:46:25.849Z,5.00
2022-09-28T02:49:25.769Z,5.53
2022-09-28T02:52:13.662Z,5.32
2022-09-28T02:55:07.231Z,7.13
2022-09-28T02:58:11.601Z,5.70
2022-09-28T03:00:47.480Z,6.43
2022-09-28T03:03:25.406Z,8.20
2022-09-28T03:06:04.269Z,7.18
2022-09-28T03:08:42.806Z,5.95
2022-09-28T03:11:20.698Z,7.82
2022-09-28T03:13:50.824Z,7.68
2022-09-28T03:16:20.091Z,7.35
2022-09-28T03:18:48.756Z,10.18
2022-09-28T03:21:16.120Z,10.32
2022-09-28T03:23:43.129Z,8.23
2022-09-28T03:26:14.139Z,7.88
2022-09-28T03:28:41.045Z,7.70
2022-09-28T03:31:11.375Z,8.48
2022-09-28T03:33:37.839Z,9.85
2022-09-28T03:36:04.349Z,8.13
2022-09-28T03:38:30.855Z,7.38
2022-09-28T03:41:00.181Z,6.95
2022-09-28T03:43:31.077Z,7.93
2022-09-28T03:46:00.816Z,8.73
2022-09-28T03:48:33.240Z,6.30
2022-09-28T03:53:29.696Z,8.63
2022-09-28T03:56:01.895Z,8.95
2022-09-28T03:58:28.814Z,7.15
2022-09-28T04:00:55.305Z,8.07
2022-09-28T04:03:21.803Z,8.85
2022-09-28T04:05:53.227Z,8.57
2022-09-28T04:08:20.159Z,8.30
2022-09-28T04:10:47.201Z,7.55
2022-09-28T04:13:13.924Z,9.25
2022-09-28T04:15:41.307Z,12.93
2022-09-28T04:18:12.269Z,11.25
2022-09-28T04:21:06.657Z,10.77
2022-09-28T04:23:39.114Z,8.85
2022-09-28T04:26:11.647Z,10.32
2022-09-28T04:28:56.964Z,13.75
2022-09-28T04:31:24.437Z,10.30
2022-09-28T04:33:51.086Z,8.25
2022-09-28T04:36:19.640Z,8.55
2022-09-28T04:38:53.204Z,8.32
2022-09-28T04:41:22.595Z,7.75
2022-09-28T04:43:50.411Z,8.27
2022-09-28T04:46:16.949Z,7.78
2022-09-28T04:48:53.512Z,9.05
2022-09-28T04:51:32.002Z,7.43
2022-09-28T04:53:58.787Z,9.85
2022-09-28T04:56:25.341Z,9.77
2022-09-28T04:58:52.859Z,6.53
2022-09-28T05:01:23.358Z,6.32
2022-09-28T05:03:58.978Z,9.55
2022-09-28T05:06:38.160Z,11.00
2022-09-28T05:09:06.588Z,9.32
2022-09-28T05:11:34.298Z,9.55
2022-09-28T05:14:01.534Z,10.43
2022-09-28T05:16:29.861Z,12.07
2022-09-28T05:19:25.484Z,9.43
2022-09-28T05:21:53.315Z,14.18
2022-09-28T05:24:19.723Z,13.82
2022-09-28T05:26:50.983Z,13.55
2022-09-28T05:29:17.686Z,14.13
2022-09-28T05:32:02.853Z,10.88
2022-09-28T05:34:46.698Z,11.68
2022-09-28T05:37:19.159Z,9.93
2022-09-28T05:39:46.607Z,11.98
2022-09-28T05:42:13.053Z,12.23
2022-09-28T05:44:39.455Z,12.52
2022-09-28T05:47:05.876Z,10.57
2022-09-28T05:49:32.501Z,11.68
2022-09-28T05:52:00.456Z,12.27
2022-09-28T05:54:27.542Z,12.50
2022-09-28T05:56:53.966Z,12.38
2022-09-28T05:59:20.416Z,10.27
2022-09-28T06:01:46.848Z,11.85
2022-09-28T06:04:16.034Z,13.05
2022-09-28T06:06:43.496Z,13.73
2022-09-28T06:09:10.047Z,13.45
2022-09-28T06:12:02.004Z,9.90
2022-09-28T06:14:49.167Z,12.18
2022-09-28T06:17:15.589Z,12.05
2022-09-28T06:19:44.946Z,11.68
2022-09-28T06:22:45.785Z,10.20
2022-09-28T06:25:12.547Z,11.50
2022-09-28T06:27:40.559Z,10.75
2022-09-28T06:30:07.515Z,9.20
2022-09-28T06:32:33.918Z,19.45
2022-09-28T06:35:00.344Z,9.73
2022-09-28T06:37:27.634Z,12.23
2022-09-28T06:39:54.925Z,11.45
2022-09-28T06:42:21.980Z,11.40
2022-09-28T06:45:07.876Z,13.70
2022-09-28T06:47:43.552Z,13.52
2022-09-28T06:50:34.386Z,12.55
2022-09-28T06:53:13.988Z,11.13
2022-09-28T06:58:20.904Z,10.05
2022-09-28T07:00:50.069Z,8.85
2022-09-28T07:03:19.839Z,10.60
2022-09-28T07:06:04.823Z,10.25
2022-09-28T07:09:05.653Z,10.40
2022-09-28T07:11:58.543Z,15.15
2022-09-28T07:14:46.914Z,10.25
2022-09-28T07:17:15.069Z,9.85
2022-09-28T07:19:42.673Z,9.45
2022-09-28T07:22:18.405Z,8.18
2022-09-28T07:24:46.853Z,9.20
2022-09-28T07:27:32.138Z,9.57
2022-09-28T07:30:35.376Z,8.05
2022-09-28T07:33:15.811Z,8.45
2022-09-28T07:36:08.636Z,11.60
2022-09-28T07:38:35.126Z,8.65
2022-09-28T07:41:14.802Z,9.32
2022-09-28T07:43:45.213Z,9.48
2022-09-28T07:46:14.790Z,8.85
2022-09-28T07:48:49.466Z,11.95
2022-09-28T07:51:24.059Z,10.63
2022-09-28T07:57:06.888Z,9.13
2022-09-28T07:59:40.591Z,11.95
2022-09-28T08:02:25.725Z,10.93
2022-09-28T08:04:52.900Z,10.88
2022-09-28T08:07:23.666Z,8.13
2022-09-28T08:09:56.906Z,8.65
2022-09-28T08:12:26.231Z,10.48
2022-09-28T08:15:14.397Z,11.45
2022-09-28T08:17:49.262Z,10.95
2022-09-28T08:20:36.773Z,12.15
2022-09-28T08:23:08.650Z,9.32
2022-09-28T08:25:39.534Z,9.00
2022-09-28T08:28:07.295Z,9.73
2022-09-28T08:30:38.423Z,11.68
2022-09-28T08:33:20.263Z,11.68
2022-09-28T08:35:47.658Z,10.88
2022-09-28T08:38:27.750Z,9.35
2022-09-28T08:41:18.964Z,12.70
2022-09-28T08:44:12.009Z,18.80
2022-09-28T08:47:06.271Z,11.38
2022-09-28T08:50:05.217Z,11.65
2022-09-28T08:52:48.016Z,9.55
2022-09-28T08:55:32.280Z,10.77
2022-09-28T08:58:13.905Z,7.75
2022-09-28T09:00:52.913Z,9.52
2022-09-28T09:03:23.755Z,11.10
2022-09-28T09:06:35.260Z,8.57
2022-09-28T09:09:34.035Z,6.75
2022-09-28T09:12:10.195Z,10.68
2022-09-28T09:15:09.512Z,8.32
2022-09-28T09:17:47.706Z,7.07
2022-09-28T09:20:55.431Z,6.57
2022-09-28T09:23:31.822Z,7.55
2022-09-28T09:26:08.727Z,5.00
2022-09-28T09:29:21.691Z,6.85
2022-09-28T09:32:08.002Z,5.93
2022-09-28T09:35:18.785Z,5.35
2022-09-28T09:38:27.798Z,5.43
2022-09-28T09:41:38.344Z,6.18
2022-09-28T09:45:01.682Z,4.07
2022-09-28T09:48:10.654Z,3.40
2022-09-28T09:53:42.192Z,8.07
2022-09-28T09:56:16.055Z,3.88
2022-09-28T09:59:11.564Z,3.83
2022-09-28T10:01:56.579Z,2.65
2022-09-28T10:04:39.468Z,3.47
2022-09-28T10:07:22.116Z,4.72
2022-09-28T10:09:51.800Z,4.95
2022-09-28T10:12:26.430Z,3.97
2022-09-28T10:14:55.225Z,3.92
2022-09-28T10:17:27.635Z,5.50
2022-09-28T10:20:20.252Z,4.18
2022-09-28T10:23:02.112Z,3.90
2022-09-28T10:25:33.879Z,3.53
2022-09-28T10:28:02.904Z,1.77
2022-09-28T10:30:36.993Z,2.90
2022-09-28T10:33:03.662Z,4.47
2022-09-28T10:35:42.186Z,3.17
2022-09-28T10:38:17.229Z,2.50
2022-09-28T10:40:55.729Z,1.88
2022-09-28T10:43:35.003Z,5.10
2022-09-28T10:46:14.982Z,3.08
2022-09-28T10:48:54.784Z,3.97
2022-09-28T10:51:42.395Z,6.05
2022-09-28T10:54:16.767Z,3.95
2022-09-28T10:56:50.187Z,3.20
2022-09-28T10:59:36.904Z,2.97
2022-09-28T11:02:35.453Z,2.78
2022-09-28T11:05:25.751Z,7.72
2022-09-28T11:07:55.868Z,3.53
2022-09-28T11:10:30.986Z,3.35
2022-09-28T11:13:03.190Z,6.28
2022-09-28T11:15:33.070Z,4.72
2022-09-28T11:18:24.018Z,6.53
2022-09-28T11:20:50.465Z,4.15
2022-09-28T11:23:30.393Z,4.93
2022-09-28T11:26:06.426Z,4.70
2022-09-28T11:31:08.118Z,5.10
2022-09-28T11:34:04.138Z,4.90
2022-09-28T11:36:46.183Z,4.32
2022-09-28T11:39:27.063Z,3.28
2022-09-28T11:42:07.242Z,4.00
2022-09-28T11:44:48.811Z,3.95
2022-09-28T11:47:45.304Z,3.40
2022-09-28T11:50:22.970Z,3.00
2022-09-28T11:52:59.363Z,1.80
2022-09-28T11:55:42.205Z,3.05
2022-09-28T11:58:24.517Z,2.40
2022-09-28T12:00:59.212Z,2.45
2022-09-28T12:03:49.017Z,2.55
2022-09-28T12:06:20.261Z,3.45
2022-09-28T12:08:56.281Z,2.28
2022-09-28T12:11:45.403Z,2.30
2022-09-28T12:14:35.603Z,1.33
2022-09-28T12:17:39.456Z,1.63
2022-09-28T12:20:26.151Z,3.53
2022-09-28T12:23:11.129Z,0.90
2022-09-28T12:25:46.691Z,2.20
2022-09-28T12:28:24.160Z,2.13
2022-09-28T12:30:52.776Z,1.00
2022-09-28T12:33:19.275Z,1.48
2022-09-28T12:36:04.823Z,1.33
2022-09-28T12:38:40.279Z,1.95
2022-09-28T12:41:19.814Z,1.35
2022-09-28T12:44:08.405Z,1.00
2022-09-28T12:46:59.276Z,1.60
2022-09-28T12:50:37.584Z,4.18
2022-09-28T12:53:15.144Z,1.42
2022-09-28T12:55:58.241Z,2.40
2022-09-28T12:59:01.050Z,1.88
2022-09-28T13:02:18.925Z,1.50
2022-09-28T13:04:51.319Z,4.40
2022-09-28T13:07:49.877Z,1.40
2022-09-28T13:10:33.147Z,1.65
2022-09-28T13:13:15.888Z,2.17
2022-09-28T13:15:48.238Z,2.78
2022-09-28T13:18:20.696Z,1.10
2022-09-28T13:21:08.930Z,2.05
2022-09-28T13:23:40.255Z,1.20
2022-09-28T13:26:22.674Z,2.63
2022-09-28T13:28:54.627Z,3.05
2022-09-28T13:31:30.877Z,0.90
2022-09-28T13:34:01.664Z,2.05
2022-09-28T13:36:28.039Z,1.58
2022-09-28T13:38:56.778Z,1.38
2022-09-28T13:41:29.118Z,3.60
2022-09-28T13:44:17.093Z,3.60
2022-09-28T13:47:08.489Z,1.52
2022-09-28T13:49:56.595Z,2.92
2022-09-28T13:52:52.092Z,2.80
2022-09-28T13:55:37.119Z,1.85
2022-09-28T13:58:26.023Z,1.75
2022-09-28T14:01:14.963Z,1.45
2022-09-28T14:03:52.604Z,2.45
2022-09-28T14:06:27.088Z,1.40
2022-09-28T14:09:15.796Z,1.55
2022-09-28T14:11:58.936Z,1.65
2022-09-28T14:14:49.777Z,1.73
2022-09-28T14:17:19.128Z,4.30
2022-09-28T14:19:51.846Z,3.05
2022-09-28T14:22:29.175Z,2.65
2022-09-28T14:25:13.567Z,3.28
2022-09-28T14:27:57.473Z,3.30
2022-09-28T14:30:27.382Z,2.72
2022-09-28T14:32:57.867Z,2.55
2022-09-28T14:35:58.773Z,3.22
2022-09-28T14:38:55.680Z,4.15
2022-09-28T14:41:34.542Z,3.05
2022-09-28T14:44:09.083Z,3.15
2022-09-28T14:46:46.062Z,2.30
2022-09-28T14:49:32.552Z,1.63
2022-09-28T14:52:02.900Z,6.07
2022-09-28T14:54:45.216Z,3.35
2022-09-28T14:57:21.120Z,1.80
2022-09-28T14:59:48.086Z,4.68
2022-09-28T15:02:24.980Z,1.60
2022-09-28T15:05:00.913Z,2.38
2022-09-28T15:07:46.067Z,3.90
2022-09-28T15:10:33.059Z,2.05
2022-09-28T15:13:23.873Z,1.85
2022-09-28T15:15:54.486Z,4.80
2022-09-28T15:18:43.861Z,2.97
2022-09-28T15:21:12.159Z,4.93
2022-09-28T15:23:41.689Z,2.95
2022-09-28T15:26:21.732Z,2.83
2022-09-28T15:28:48.164Z,2.53
2022-09-28T15:31:20.416Z,2.97
2022-09-28T15:34:06.112Z,3.00
2022-09-28T15:36:46.322Z,3.80
2022-09-28T15:39:29.627Z,5.40
2022-09-28T15:41:56.427Z,3.63
2022-09-28T15:44:32.920Z,3.15
2022-09-28T15:47:09.672Z,5.07
2022-09-28T15:49:46.434Z,4.18
2022-09-28T15:52:35.269Z,5.53
2022-09-28T15:55:06.097Z,4.63
2022-09-28T15:57:39.160Z,5.30
2022-09-28T16:00:20.835Z,3.67
2022-09-28T16:03:08.899Z,4.20
2022-09-28T16:05:57.272Z,6.70
2022-09-28T16:08:36.865Z,5.70
2022-09-28T16:11:31.324Z,4.35
2022-09-28T16:14:08.768Z,7.10
2022-09-28T16:16:46.958Z,8.48
2022-09-28T16:19:29.584Z,5.50
2022-09-28T16:21:59.870Z,8.43
2022-09-28T16:24:30.322Z,5.82
2022-09-28T16:27:09.230Z,4.65
2022-09-28T16:29:39.673Z,4.35
2022-09-28T16:32:24.889Z,5.78
2022-09-28T16:35:11.182Z,3.33
2022-09-28T16:37:42.589Z,4.45
2022-09-28T16:40:10.367Z,3.40
2022-09-28T16:42:38.772Z,4.07
2022-09-28T16:45:06.187Z,3.45
2022-09-28T16:47:36.258Z,4.32
2022-09-28T16:50:10.591Z,4.90
2022-09-28T16:52:59.820Z,5.20
2022-09-28T16:55:40.225Z,6.68
2022-09-28T16:58:08.094Z,7.60
2022-09-28T17:00:34.496Z,10.63
2022-09-28T17:03:00.929Z,11.68
2022-09-28T17:05:27.333Z,10.18
2022-09-28T17:08:02.510Z,10.40
2022-09-28T17:13:38.909Z,8.52
2022-09-28T17:16:10.946Z,7.68
2022-09-28T17:18:39.108Z,8.52
2022-09-28T17:21:09.448Z,7.28
2022-09-28T17:23:35.860Z,6.88
2022-09-28T17:26:03.948Z,9.52
2022-09-28T17:28:33.474Z,9.38
2022-09-28T17:30:59.993Z,8.23
2022-09-28T17:33:26.459Z,10.13
2022-09-28T17:36:00.099Z,12.20
2022-09-28T17:38:27.140Z,9.38
2022-09-28T17:40:53.609Z,8.13
2022-09-28T17:43:22.111Z,7.97
2022-09-28T17:45:49.033Z,8.32
2022-09-28T17:48:18.098Z,7.68
2022-09-28T17:50:46.652Z,7.93
2022-09-28T17:53:13.829Z,7.38
2022-09-28T17:55:40.843Z,5.38
2022-09-28T17:58:22.302Z,7.68
2022-09-28T18:00:51.163Z,6.25
2022-09-28T18:03:23.753Z,5.57
2022-09-28T18:05:57.953Z,7.20
2022-09-28T18:08:24.391Z,6.35
2022-09-28T18:10:50.917Z,11.40
2022-09-28T18:13:17.382Z,7.03
2022-09-28T18:15:43.958Z,10.07
2022-09-28T18:18:12.518Z,8.10
2022-09-28T18:20:39.480Z,8.32
2022-09-28T18:23:05.951Z,7.25
2022-09-28T18:25:32.483Z,8.73
2022-09-28T18:28:00.078Z,8.63
2022-09-28T18:30:28.011Z,9.95
2022-09-28T18:32:54.505Z,7.68
2022-09-28T18:35:23.225Z,7.53
2022-09-28T18:37:50.355Z,9.90
2022-09-28T18:40:17.286Z,11.45
2022-09-28T18:42:43.768Z,6.97
2022-09-28T18:45:11.203Z,7.15
2022-09-28T18:47:38.983Z,8.57
2022-09-28T18:50:06.299Z,7.72
2022-09-28T18:52:36.279Z,7.82
2022-09-28T18:55:02.979Z,7.85
2022-09-28T18:57:29.409Z,7.38
2022-09-28T18:59:55.848Z,7.30
2022-09-28T19:02:22.412Z,6.68
2022-09-28T19:04:48.841Z,8.73
2022-09-28T19:07:15.285Z,7.75
2022-09-28T19:09:43.938Z,6.50
2022-09-28T19:12:11.762Z,6.18
2022-09-28T19:14:38.220Z,8.75
2022-09-28T19:17:04.913Z,8.65
2022-09-28T19:19:31.675Z,6.63
2022-09-28T19:21:58.216Z,7.45
2022-09-28T19:24:25.342Z,9.10
2022-09-28T19:26:53.539Z,8.90
2022-09-28T19:29:20.550Z,6.15
2022-09-28T19:31:47.262Z,8.70
2022-09-28T19:34:14.413Z,8.90
2022-09-28T19:36:41.642Z,9.13
2022-09-28T19:39:08.026Z,6.50
2022-09-28T19:41:43.485Z,5.97
2022-09-28T19:44:24.345Z,7.93
2022-09-28T19:46:53.470Z,6.90
2022-09-28T19:49:22.085Z,9.82
2022-09-28T19:54:37.401Z,9.60
2022-09-28T19:57:07.761Z,8.82
2022-09-28T19:59:35.586Z,6.95
2022-09-28T20:02:03.104Z,7.97
2022-09-28T20:04:29.958Z,9.45
2022-09-28T20:06:56.352Z,11.85
2022-09-28T20:09:22.780Z,10.88
2022-09-28T20:11:51.250Z,8.80
2022-09-28T20:14:18.594Z,9.23
2022-09-28T20:16:46.170Z,10.13
2022-09-28T20:19:12.799Z,9.50
2022-09-28T20:21:39.222Z,10.20
2022-09-28T20:24:05.747Z,15.05
2022-09-28T20:26:37.329Z,9.77
2022-09-28T20:29:07.718Z,8.02
2022-09-28T20:31:38.792Z,7.18
2022-09-28T20:36:32.229Z,7.80
2022-09-28T20:39:01.798Z,10.60
2022-09-28T20:41:34.682Z,6.70
2022-09-28T20:44:05.357Z,8.10
2022-09-28T20:46:32.892Z,7.10
2022-09-28T20:48:59.623Z,8.85
2022-09-28T20:51:26.372Z,7.53
2022-09-28T20:53:58.095Z,7.72
2022-09-28T20:56:28.938Z,6.30
2022-09-28T20:58:55.415Z,6.38
2022-09-28T21:01:24.105Z,6.78
2022-09-28T21:03:55.754Z,8.20
2022-09-28T21:06:25.319Z,5.30
2022-09-28T21:08:52.036Z,5.95
2022-09-28T21:11:20.695Z,6.45
2022-09-28T21:13:47.743Z,8.02
2022-09-28T21:16:16.017Z,6.30
2022-09-28T21:18:42.584Z,5.35
2022-09-28T21:21:14.047Z,7.47
2022-09-28T21:23:40.741Z,4.80
2022-09-28T21:26:10.000Z,6.00
2022-09-28T21:28:37.341Z,5.10
2022-09-28T21:31:09.011Z,6.28
2022-09-28T21:33:35.407Z,8.00
2022-09-28T21:36:04.010Z,7.13
2022-09-28T21:38:30.580Z,8.15
2022-09-28T21:40:58.510Z,5.15
2022-09-28T21:43:27.348Z,7.10
2022-09-28T21:45:54.865Z,7.35
2022-09-28T21:48:22.873Z,9.10
2022-09-28T21:51:00.288Z,6.07
2022-09-28T21:53:29.976Z,5.53
2022-09-28T21:55:57.406Z,10.30
2022-09-28T21:58:26.510Z,5.68
2022-09-28T22:01:15.382Z,6.38
2022-09-28T22:03:43.992Z,5.47
2022-09-28T22:06:11.192Z,5.00
2022-09-28T22:08:38.159Z,7.88
2022-09-28T22:11:13.213Z,6.10
2022-09-28T22:13:59.660Z,5.50
2022-09-28T22:16:29.570Z,4.97
2022-09-28T22:18:56.500Z,5.72
2022-09-28T22:21:32.590Z,5.38
2022-09-28T22:24:01.066Z,6.28
2022-09-28T22:26:29.498Z,6.28
2022-09-28T22:29:07.597Z,9.10
2022-09-28T22:31:37.424Z,5.53
2022-09-28T22:34:05.244Z,8.57
2022-09-28T22:36:31.829Z,7.90
2022-09-28T22:38:59.430Z,8.88
2022-09-28T22:41:26.164Z,8.15
2022-09-28T22:43:53.706Z,6.82
2022-09-28T22:46:22.913Z,7.75
2022-09-28T22:48:52.623Z,6.75
2022-09-28T22:51:19.742Z,8.68
2022-09-28T22:53:46.118Z,8.30
2022-09-28T22:56:18.508Z,7.68
2022-09-28T22:58:45.717Z,8.82
2022-09-28T23:01:32.385Z,11.02
2022-09-28T23:03:59.388Z,10.15
2022-09-28T23:06:27.720Z,8.00
2022-09-28T23:08:54.110Z,9.57
2022-09-28T23:11:20.607Z,9.05
2022-09-28T23:13:51.257Z,10.15
2022-09-28T23:16:18.561Z,10.82
2022-09-28T23:18:45.053Z,10.23
2022-09-28T23:21:16.703Z,11.88
2022-09-28T23:23:50.519Z,12.43
2022-09-28T23:26:19.956Z,9.57
2022-09-28T23:28:46.427Z,10.35
2022-09-28T23:31:16.713Z,11.45
2022-09-28T23:33:43.293Z,9.23
2022-09-28T23:36:09.940Z,12.07
2022-09-28T23:38:36.395Z,10.60
2022-09-28T23:41:02.841Z,10.48
2022-09-28T23:43:29.255Z,11.18
2022-09-28T23:45:55.633Z,10.32
2022-09-28T23:48:22.075Z,14.65
2022-09-28T23:50:48.709Z,12.65
2022-09-28T23:53:15.438Z,12.10
2022-09-28T23:55:42.828Z,13.02
2022-09-28T23:58:10.405Z,12.48
